Tiempo atmosférico en la estación meteorológica de Palma, Puerto, Illes Balears (3 m.)



Fecha
DESCASC
Temp. máxima en grados centígrados (hora)
DESCASC
Temp. mínima en grados centígrados (hora)
DESCASC
Temp. media en grados centígrados
DESCASC
Racha de viento máxima en m/sg (hora)
DESCASC
Velocidad máxima media en intervalos de 10 minutos(hora)
DESCASC
Precipitaciones diarias en mm
DESCASC
Precipitaciones de 00:00 a 06:00 en mm
DESCASC
Precipitaciones de 06:00 a 12:00 en mm
DESCASC
Precipitaciones de 12:00 a 18:00 en mm
DESCASC
Precipitaciones de 18:00 a 24:00 en mm
DESCASC
31-07-2019 29.9 (16:40) 24.4 (00:00) 27.1 12.78 (10:40) 7.5 (10:40) 0 0 0 0 0
13-08-2019 30 (16:00) 23.6 (00:00) 26.8 11.11 (03:30) 6.39 (03:50) 0 0 0 0 0
12-08-2019 31.9 (13:30) 25.3 (00:00) 28.6 11.67 (08:40) 6.11 (20:30) 0 0 0 0 0
14-08-2019 28.7 (13:50) 21.9 (00:00) 25.3 9.44 (16:00) 5.28 (15:50) 0 0 0 0 0
21-07-2019 34.2 (15:20) 24.8 (00:00) 29.5 8.06 (09:00) 5 (09:00) 0 0 0 0 0
27-07-2019 30.7 (15:40) 24.5 (00:00) 27.6 10.83 (16:50) 5 (16:30) 0 0 0 0 0
02-08-2019 33.2 (12:40) 25.1 (00:00) 29.2 7.78 (09:50) 4.72 (10:00) 0 0 0 0 0
01-08-2019 33.7 (13:10) 24.7 (00:00) 29.2 9.17 (05:30) 4.72 (05:20) 0 0 0 0 0
08-08-2019 29.8 (16:00) 26 (00:00) 27.9 7.78 (16:30) 4.72 (17:00) 0 0 0 0 0
29-07-2019 28.9 (14:50) 21.3 (00:00) 25.1 7.78 (15:00) 4.72 (16:50) 0 0 0 0 0
06-08-2019 30.8 (17:20) 23.9 (00:00) 27.3 8.89 (16:50) 4.72 (14:00) 0 0 0 0 0
05-08-2019 31.2 (11:10) 23.7 (00:00) 27.5 7.5 (16:30) 4.17 (16:50) 0 0 0 0 0
15-08-2019 28.6 (15:40) 22.6 (05:20) 25.6 7.22 (14:30) 4.17 (14:30) 0 0 0 0 0
07-08-2019 31.3 (16:10) 24.6 (00:00) 27.9 7.5 (12:30) 4.17 (14:40) 0 0 0 0 0
09-08-2019 29.6 (15:10) 23.8 (00:00) 26.7 7.22 (15:30) 4.17 (16:10) 0 0 0 0 0
11-08-2019 30.8 (16:20) 26.5 (00:00) 28.6 7.5 (14:40) 4.17 (14:40) 0 0 0 0 0
18-07-2019 30 (12:00) 23 (00:00) 26.5 8.89 (13:10) 4.17 (14:10) 0 0 0 0 0
30-07-2019 30.4 (16:00) 22.7 (00:00) 26.6 12.5 (14:10) 4.17 (23:50) 0 0 0 0 0
24-07-2019 33.5 (13:00) 25.1 (00:00) 29.3 7.22 (15:50) 4.17 (15:30) 0 0 0 0 0
28-07-2019 30.8 (16:00) 23.5 (00:00) 27.1 8.33 (16:40) 3.89 (18:10) 0 0 0 0 0
23-07-2019 33.3 (11:10) 24.4 (00:00) 28.8 7.22 (15:50) 3.89 (15:50) 0 0 0 0 0
22-07-2019 34.9 (12:20) 25.1 (00:00) 30 6.67 (13:20) 3.89 (14:00) 0 0 0 0 0
20-07-2019 33.4 (12:30) 24.2 (00:00) 28.8 7.78 (14:30) 3.89 (22:30) 0 0 0 0 0
03-08-2019 32.6 (12:20) 22.5 (00:00) 27.5 7.22 (13:10) 3.61 (15:00) 0 0 0 0 0
26-07-2019 31.1 (10:20) 24.5 (00:00) 27.8 7.78 (16:00) 3.61 (16:20) 0 0 0 0 0
25-07-2019 33.7 (11:50) 24.6 (00:00) 29.2 6.94 (13:50) 3.61 (13:00) 0 0 0 0 0
19-07-2019 29.3 (10:30) 22.9 (00:00) 26.1 6.67 (15:30) 3.61 (14:20) 0 0 0 0 0
04-08-2019 31.6 (11:10) 24.3 (00:00) 27.9 6.39 (14:20) 3.06 (13:30) 0 0 0 0 0
10-08-2019 31.2 (11:00) 24.7 (00:00) 28 6.11 (14:50) 3.06 (12:10) 0 0 0 0 0

Gráficas

Temp. máximas Temp. mínimas Temp. medias Precipitaciones Rachas de viento máximas Velocidades máximas media en intervalos de 10 minutos

Datos horarios

Fecha y hora oficial Temperatura (ºC) Velocidad del viento (km/h) Dirección del viento Racha (km/h) Dirección de racha Precipitación (mm) Presión (hPa) Tendencia (hPa) Humedad (%)
2019-08-16 23:00:00 25.8 4 Sur 8 Sur 0 -- -- 77
2019-08-16 22:00:00 26 5 Sudoeste 11 Sur 0 -- -- 74
2019-08-16 21:00:00 26.2 6 Sudoeste 16 Sudoeste 0 -- -- 74
2019-08-16 20:00:00 26.5 9 Sur 18 Sur 0 -- -- 71
2019-08-16 19:00:00 27.1 9 Sudoeste 20 Sudoeste 0 -- -- 67
2019-08-16 18:00:00 27.3 13 Sudoeste 22 Sudoeste 0 -- -- 66
2019-08-16 17:00:00 28.2 11 Sur 24 Sudoeste 0 -- -- 64
2019-08-16 16:00:00 28.2 11 Sur 24 Sur 0 -- -- 63
2019-08-16 15:00:00 28 13 Sur 24 Sur 0 -- -- 64
2019-08-16 14:00:00 28.2 11 Sur 23 Sur 0 -- -- 61
2019-08-16 13:00:00 28.1 10 Sur 21 Sur 0 -- -- 64
2019-08-16 12:00:00 28.2 8 Sur 16 Sur 0 -- -- 59
2019-08-16 11:00:00 28.8 3 Sudeste 9 Nordeste 0 -- -- 58
2019-08-16 10:00:00 27.3 6 Nordeste 11 Nordeste 0 -- -- 64
2019-08-16 09:00:00 25.5 6 Nordeste 13 Norte 0 -- -- 70
2019-08-16 08:00:00 24.2 4 Norte 12 Norte 0 -- -- 77
2019-08-16 07:00:00 23.5 4 Norte 12 Norte 0 -- -- 77
2019-08-16 06:00:00 23.7 5 Norte 11 Noroeste 0 -- -- 75
2019-08-16 05:00:00 23.9 5 Noroeste 10 Nordeste 0 -- -- 75
2019-08-16 04:00:00 24.2 4 Norte 8 Norte 0 -- -- 74
2019-08-16 03:00:00 24.3 4 Norte 10 Norte 0 -- -- 72
2019-08-16 02:00:00 24.3 5 Norte 8 Norte 0 -- -- 75
2019-08-16 01:00:00 24.9 3 Norte 8 Noroeste 0 -- -- 73
2019-08-16 00:00:00 25.2 2 Noroeste 7 Noroeste 0 -- -- 71
2019-08-15 23:00:00 25.8 0 Calma 9 Sur 0 -- -- 67
2019-08-15 22:00:00 26.1 5 Sur 12 Sur 0 -- -- 69
2019-08-15 21:00:00 26.1 8 Sudoeste 13 Sudoeste 0 -- -- 68
2019-08-15 20:00:00 26.6 6 Sur 14 Sudoeste 0 -- -- 67
2019-08-15 19:00:00 26.8 8 Sudoeste 18 Sur 0 -- -- 67
2019-08-15 18:00:00 27.3 9 Sur 21 Sur 0 -- -- 67
2019-08-15 17:00:00 27.9 10 Sur 23 Sur 0 -- -- 66
2019-08-15 16:00:00 27.7 14 Sur 26 Sur 0 -- -- 64
2019-08-15 15:00:00 27.6 14 Sur 26 Sur 0 -- -- 64
2019-08-15 14:00:00 27.7 14 Sur 24 Sur 0 -- -- 64
2019-08-15 13:00:00 27.7 12 Sur 22 Sudoeste 0 -- -- 66
2019-08-15 12:00:00 27.4 10 Sur 17 Sudeste 0 -- -- 70
2019-08-15 11:00:00 27 6 Sur 11 Sudeste 0 -- -- 69
2019-08-15 10:00:00 27.2 4 Sudeste 10 Nordeste 0 -- -- 67
2019-08-15 09:00:00 25.1 5 Nordeste 10 Nordeste 0 -- -- 72
2019-08-15 08:00:00 23.1 3 Nordeste 5 Norte 0 -- -- 83
2019-08-15 07:00:00 22.7 0 Calma 4 Norte 0 -- -- 81
2019-08-15 06:00:00 22.6 0 Calma 5 Norte 0 -- -- 81
2019-08-15 05:00:00 22.9 3 Norte 8 Norte 0 -- -- 77
2019-08-15 04:00:00 23.4 3 Norte 6 Norte 0 -- -- 79
2019-08-15 03:00:00 23.6 2 Norte 5 Nordeste 0 -- -- 77
2019-08-15 02:00:00 24.1 0 Calma 5 Oeste 0 -- -- 74
2019-08-15 01:00:00 24.5 2 Noroeste 8 Noroeste 0 -- -- 70
2019-08-15 00:00:00 25 4 Noroeste 7 Sur 0 -- -- 68
2019-08-14 23:00:00 25.4 3 Sudoeste 12 Oeste 0 -- -- 70
2019-08-14 22:00:00 25.8 4 Oeste 14 Oeste 0 -- -- 68
2019-08-14 21:00:00 26 8 Sudoeste 20 Sudoeste 0 -- -- 67
2019-08-14 20:00:00 26.5 9 Sudoeste 22 Sudoeste 0 -- -- 64
2019-08-14 19:00:00 26.6 11 Sudoeste 28 Sur 0 -- -- 65
2019-08-14 18:00:00 26.8 13 Sur 32 Sur 0 -- -- 64
2019-08-14 17:00:00 27.2 17 Sur 33 Sudoeste 0 -- -- 61
2019-08-14 16:00:00 27.6 19 Sur 34 Sur 0 -- -- 60
2019-08-14 15:00:00 27.7 14 Sur 31 Sudoeste 0 -- -- 59
2019-08-14 14:00:00 28.5 13 Sudoeste 32 Sudoeste 0 -- -- 57
2019-08-14 13:00:00 28.2 14 Sudoeste 33 Sudoeste 0 -- -- 58
2019-08-14 12:00:00 27.8 13 Sudoeste 26 Sudoeste 0 -- -- 59
2019-08-14 11:00:00 27.4 9 Sur 22 Sudoeste 0 -- -- 62
2019-08-14 10:00:00 25.7 7 Sur 12 Sur 0 -- -- 67
2019-08-14 09:00:00 25.1 0 Calma 6 Nordeste 0 -- -- 67
2019-08-14 08:00:00 22.4 2 Norte 5 Noroeste 0 -- -- 74
2019-08-14 07:00:00 22 3 Norte 7 Norte 0 -- -- 75
2019-08-14 06:00:00 22.3 3 Norte 8 Este 0 -- -- 76
2019-08-14 05:00:00 22.5 3 Norte 9 Norte 0 -- -- 71
2019-08-14 04:00:00 22.4 4 Norte 10 Oeste 0 -- -- 68
2019-08-14 03:00:00 23.1 3 Norte 7 Nordeste 0 -- -- 68
2019-08-14 02:00:00 23.6 3 Nordeste 6 Nordeste 0 -- -- 68
2019-08-14 01:00:00 24.2 0 Calma 9 Oeste 0 -- -- 65
2019-08-14 00:00:00 24.6 3 Oeste 11 Oeste 0 -- -- 62
2019-08-13 23:00:00 24.9 3 Oeste 10 Sudoeste 0 -- -- 61
2019-08-13 22:00:00 25.1 5 Sudoeste 14 Sur 0 -- -- 60
2019-08-13 21:00:00 25.4 8 Sur 17 Sur 0 -- -- 58
2019-08-13 20:00:00 25.8 11 Sur 25 Sudoeste 0 -- -- 56
2019-08-13 19:00:00 26.8 12 Sur 28 Sur 0 -- -- 50
2019-08-13 18:00:00 28.5 9 Sudoeste 23 Sudoeste 0 -- -- 45
2019-08-13 17:00:00 28.8 11 Sudoeste 24 Sudoeste 0 -- -- 46
2019-08-13 16:00:00 30 8 Sudoeste 18 Sur 0 -- -- 43
2019-08-13 15:00:00 29.5 5 Sudeste 17 Sudeste 0 -- -- 44
2019-08-13 14:00:00 29.4 7 Este 22 Nordeste 0 -- -- 47
2019-08-13 13:00:00 27.9 11 Este 24 Este 0 -- -- 50
2019-08-13 12:00:00 27.1 13 Nordeste 32 Nordeste 0 -- -- 51
2019-08-13 11:00:00 26.1 16 Este 36 Nordeste 0 -- -- 51
2019-08-13 10:00:00 25.4 22 Nordeste 35 Nordeste 0 -- -- 53
2019-08-13 09:00:00 24.4 17 Nordeste 31 Nordeste 0 -- -- 56
2019-08-13 08:00:00 23.9 14 Nordeste 34 Nordeste 0 -- -- 59
2019-08-13 07:00:00 23.8 18 Nordeste 32 Nordeste 0 -- -- 57
2019-08-13 06:00:00 23.9 12 Nordeste 32 Este 0 -- -- 56
2019-08-13 05:00:00 24 21 Nordeste 34 Nordeste 0 -- -- 57
2019-08-13 04:00:00 24.3 20 Nordeste 40 Nordeste 0 -- -- 56
2019-08-13 03:00:00 24.8 18 Nordeste 36 Este 0 -- -- 57
2019-08-13 02:00:00 25.1 18 Nordeste 33 Nordeste 0 -- -- 60
2019-08-13 01:00:00 25.3 14 Nordeste 32 Nordeste 0 -- -- 57
2019-08-13 00:00:00 25.6 15 Nordeste 33 Nordeste 0 -- -- 57
2019-08-12 23:00:00 25.5 13 Nordeste 32 Nordeste 0 -- -- 60
2019-08-12 22:00:00 25.5 17 Nordeste 35 Nordeste 0 -- -- 61
2019-08-12 21:00:00 26 15 Nordeste 35 Nordeste 0 -- -- 61
2019-08-12 20:00:00 27.1 14 Nordeste 27 Este 0 -- -- 61
2019-08-12 19:00:00 28.2 14 Nordeste 25 Nordeste 0 -- -- 58
2019-08-12 18:00:00 29.2 14 Nordeste 28 Nordeste 0 -- -- 58
2019-08-12 17:00:00 30.1 11 Este 27 Este 0 -- -- 57
2019-08-12 16:00:00 29.5 14 Este 32 Nordeste 0 -- -- 59
2019-08-12 15:00:00 29 18 Nordeste 33 Nordeste 0 -- -- 60
2019-08-12 14:00:00 30.5 14 Este 27 Este 0 -- -- 55
2019-08-12 13:00:00 30.8 12 Este 28 Nordeste 0 -- -- 57
2019-08-12 12:00:00 30.8 12 Este 24 Este 0 -- -- 57
2019-08-12 11:00:00 29.5 10 Este 24 Nordeste 0 -- -- 62
2019-08-12 10:00:00 27 11 Nordeste 28 Nordeste 0 -- -- 70
2019-08-12 09:00:00 26.4 14 Nordeste 42 Nordeste 0 -- -- 74
2019-08-12 08:00:00 26.4 18 Nordeste 33 Nordeste 0 -- -- 78
2019-08-12 07:00:00 26.5 12 Nordeste 21 Este 0 -- -- 80
2019-08-12 06:00:00 27.1 6 Nordeste 15 Nordeste 0 -- -- 78
2019-08-12 05:00:00 27.3 5 Nordeste 11 Este 0 -- -- 77
2019-08-12 04:00:00 27.6 3 Norte 13 Noroeste 0 -- -- 77
2019-08-12 03:00:00 27.5 7 Este 13 Nordeste 0 -- -- 84
2019-08-12 02:00:00 27.6 2 Norte 8 Sudoeste 0 -- -- 80
2019-08-12 01:00:00 27.4 2 Sudoeste 7 Sur 0 -- -- 84
2019-08-12 00:00:00 27.4 0 Calma 8 Este 0 -- -- 83
2019-08-11 23:00:00 27.5 2 Este 7 Nordeste 0 -- -- 82
2019-08-11 22:00:00 27.7 2 Nordeste 6 Sur 0 -- -- 80
2019-08-11 21:00:00 28 4 Sur 16 Sur 0 -- -- 77
2019-08-11 20:00:00 28.8 10 Sur 18 Sudoeste 0 -- -- 74
2019-08-11 19:00:00 30 9 Sur 25 Sudoeste 0 -- -- 67
2019-08-11 18:00:00 29.6 11 Sur 24 Sudoeste 0 -- -- 70
2019-08-11 17:00:00 29.5 13 Sur 23 Sur 0 -- -- 70
2019-08-11 16:00:00 30 12 Sur 24 Sur 0 -- -- 70
2019-08-11 15:00:00 29.4 14 Sur 27 Sur 0 -- -- 72
2019-08-11 14:00:00 29.4 8 Sur 19 Sur 0 -- -- 73
2019-08-11 13:00:00 29.2 8 Sur 19 Sur 0 -- -- 74
2019-08-11 12:00:00 29.5 7 Sur 16 Sur 0 -- -- 71
2019-08-11 11:00:00 29.7 2 Sur 7 Este 0 -- -- 67
2019-08-11 10:00:00 28.4 4 Este 15 Este 0 -- -- 73
2019-08-11 09:00:00 27.2 7 Nordeste 15 Nordeste 0 -- -- 77
2019-08-11 08:00:00 26.9 7 Nordeste 15 Nordeste 0 -- -- 81
2019-08-11 07:00:00 26.7 10 Nordeste 17 Nordeste 0 -- -- 82
2019-08-11 06:00:00 26.6 5 Nordeste 14 Nordeste 0 -- -- 84
2019-08-11 05:00:00 26.5 10 Nordeste 14 Este 0 -- -- 86
2019-08-11 04:00:00 26.7 9 Nordeste 14 Nordeste 0 -- -- 85
2019-08-11 03:00:00 26.8 6 Nordeste 12 Nordeste 0 -- -- 85
2019-08-11 02:00:00 27 5 Nordeste 12 Este 0 -- -- 84
2019-08-11 01:00:00 27.4 6 Nordeste 15 Nordeste 0 -- -- 80
2019-08-11 00:00:00 27.6 4 Nordeste 9 Este 0 -- -- 83
2019-08-10 23:00:00 27.8 0 Calma 6 Sudoeste 0 -- -- 85
2019-08-10 22:00:00 27.9 0 Calma 7 Sur 0 -- -- 84
2019-08-10 21:00:00 28.4 4 Sur 7 Sur 0 -- -- 76
2019-08-10 20:00:00 28.8 3 Sur 13 Sudoeste 0 -- -- 73
2019-08-10 19:00:00 29 6 Sur 19 Sur 0 -- -- 74
2019-08-10 18:00:00 29.5 11 Sudoeste 22 Sudoeste 0 -- -- 72
2019-08-10 17:00:00 29.9 11 Sudoeste 21 Sudoeste 0 -- -- 71
2019-08-10 16:00:00 30.5 9 Sudoeste 19 Sudoeste 0 -- -- 71
2019-08-10 15:00:00 29.5 8 Sudoeste 22 Sudoeste 0 -- -- 73
2019-08-10 14:00:00 29.8 10 Sur 19 Sudoeste 0 -- -- 71
2019-08-10 13:00:00 30.7 7 Sudoeste 20 Sur 0 -- -- 70
2019-08-10 12:00:00 29.3 10 Sur 19 Sur 0 -- -- 77
2019-08-10 11:00:00 31 4 Sudeste 11 Este 0 -- -- 61
2019-08-10 10:00:00 30 7 Este 14 Este 0 -- -- 62
2019-08-10 09:00:00 26.7 7 Nordeste 12 Nordeste 0 -- -- 74
2019-08-10 08:00:00 25.4 0 Calma 5 Norte 0 -- -- 86
2019-08-10 07:00:00 25.5 0 Calma 6 Sudoeste 0 -- -- 89
2019-08-10 06:00:00 25.4 0 Calma -- -- 0 -- -- 88
2019-08-10 05:00:00 26.1 0 Calma -- -- 0 -- -- 88
2019-08-10 04:00:00 26.3 0 Calma 6 Sudoeste 0 -- -- 88
2019-08-10 03:00:00 26.3 3 Sudoeste 6 Sudoeste 0 -- -- 88
2019-08-10 02:00:00 26.4 2 Sudoeste 5 Sudoeste 0 -- -- 88
2019-08-10 01:00:00 26.2 0 Calma 6 Sudoeste 0 -- -- 87
2019-08-10 00:00:00 26.6 2 Sudoeste 6 Sudoeste 0 -- -- 87
2019-08-09 23:00:00 26.9 0 Calma 9 Sur 0 -- -- 87
2019-08-09 22:00:00 27.1 4 Sur 12 Sudoeste 0 -- -- 86
2019-08-09 21:00:00 27.3 6 Sur 12 Sudoeste 0 -- -- 86
2019-08-09 20:00:00 27.6 8 Sur 17 Sur 0 -- -- 83
2019-08-09 19:00:00 28 13 Sur 20 Sur 0 -- -- 80
2019-08-09 18:00:00 28.1 10 Sur 21 Sur 0 -- -- 77
2019-08-09 17:00:00 28.7 11 Sur 22 Sudoeste 0 -- -- 75
2019-08-09 16:00:00 29 15 Sur 26 Sudoeste 0 -- -- 73
2019-08-09 15:00:00 29 13 Sur 24 Sur 0 -- -- 72
2019-08-09 14:00:00 28.9 11 Sur 22 Sudoeste 0 -- -- 73
2019-08-09 13:00:00 28.8 10 Sur 21 Sur 0 -- -- 73
2019-08-09 12:00:00 28.4 10 Sur 18 Sudoeste 0 -- -- 74
2019-08-09 11:00:00 28.7 9 Sur 17 Sudoeste 0 -- -- 74
2019-08-09 10:00:00 28.3 4 Sudeste 9 Sudeste 0 -- -- 75
2019-08-09 09:00:00 27 4 Nordeste 9 Este 0 -- -- 64
2019-08-09 08:00:00 24.6 0 Calma 5 Nordeste 0 -- -- 81
2019-08-09 07:00:00 23.9 0 Calma 5 Norte 0 -- -- 74
2019-08-09 06:00:00 24.3 3 Norte 6 Nordeste 0 -- -- 80
2019-08-09 05:00:00 24.6 0 Calma 3 Noroeste 0 -- -- 83
2019-08-09 04:00:00 25.6 0 Calma 5 Sudoeste 0 -- -- 87
2019-08-09 03:00:00 26 0 Calma 5 Oeste 0 -- -- 87
2019-08-09 02:00:00 26 0 Calma 4 Norte 0 -- -- 86
2019-08-09 01:00:00 26.5 0 Calma 7 Sudoeste 0 -- -- 87
2019-08-09 00:00:00 26.7 4 Sudoeste 8 Sudoeste 0 -- -- 85
2019-08-08 23:00:00 27.2 2 Sudoeste 11 Sudoeste 0 -- -- 85
2019-08-08 22:00:00 27.3 2 Sudoeste 13 Sudoeste 0 -- -- 85
2019-08-08 21:00:00 27.3 6 Sudoeste 17 Sur 0 -- -- 85
2019-08-08 20:00:00 27.5 8 Sudoeste 18 Sudoeste 0 -- -- 82
2019-08-08 19:00:00 27.9 10 Sur 27 Sur 0 -- -- 80
2019-08-08 18:00:00 28.2 14 Sur 26 Sur 0 -- -- 78
2019-08-08 17:00:00 28.6 17 Sur 28 Sur 0 -- -- 74
2019-08-08 16:00:00 29.2 13 Sur 25 Sudoeste 0 -- -- 72
2019-08-08 15:00:00 29.2 13 Sur 26 Sur 0 -- -- 72
2019-08-08 14:00:00 29 13 Sur 23 Sur 0 -- -- 75
2019-08-08 13:00:00 28.7 11 Sudoeste 21 Sudoeste 0 -- -- 74
2019-08-08 12:00:00 28.9 8 Sur 17 Sur 0 -- -- 73
2019-08-08 11:00:00 28.4 7 Sur 12 Sur 0 -- -- 74
2019-08-08 10:00:00 27.5 4 Este 8 Sudeste 0 -- -- 80
2019-08-08 09:00:00 27.9 5 Este 10 Nordeste 0 -- -- 78
2019-08-08 08:00:00 26.5 5 Nordeste 10 Este 0 -- -- 82
2019-08-08 07:00:00 26.1 0 Calma 4 Sudeste 0 -- -- 84
2019-08-08 06:00:00 26.4 0 Calma 5 Norte 0 -- -- 82
2019-08-08 05:00:00 26.7 0 Calma 11 Norte 0 -- -- 81
2019-08-08 04:00:00 26.9 4 Nordeste 10 Nordeste 0 -- -- 81
2019-08-08 03:00:00 26.8 0 Calma 4 Este 0 -- -- 81
2019-08-08 02:00:00 26.4 0 Calma 11 Este 0 -- -- 82
2019-08-08 01:00:00 26.6 5 Este 16 Este 0 -- -- 82
2019-08-08 00:00:00 26.9 9 Este 19 Nordeste 0 -- -- 79
2019-08-07 23:00:00 27.7 6 Este 15 Nordeste 0 -- -- 77
2019-08-07 22:00:00 27.6 0 Calma 6 Este 0 -- -- 81
2019-08-07 21:00:00 28 2 Nordeste 8 Sur 0 -- -- 80
2019-08-07 20:00:00 29 6 Sur 16 Sudoeste 0 -- -- 71
2019-08-07 19:00:00 29.2 8 Sudoeste 22 Sudoeste 0 -- -- 70
2019-08-07 18:00:00 30.1 10 Sudoeste 24 Sudoeste 0 -- -- 67
2019-08-07 17:00:00 30 13 Sudoeste 23 Sur 0 -- -- 67
2019-08-07 16:00:00 31.1 12 Sudoeste 23 Sur 0 -- -- 63
2019-08-07 15:00:00 29.6 12 Sur 27 Sur 0 -- -- 69
2019-08-07 14:00:00 29.7 11 Sur 26 Sur 0 -- -- 71
2019-08-07 13:00:00 29.1 13 Sur 27 Sur 0 -- -- 72
2019-08-07 12:00:00 28.1 10 Sur 19 Sudeste 0 -- -- 76
2019-08-07 11:00:00 27.7 8 Sur 16 Sur 0 -- -- 80
2019-08-07 10:00:00 27.1 7 Sur 13 Sur 0 -- -- 80
2019-08-07 09:00:00 26.7 4 Sudeste 7 Sudeste 0 -- -- 81
2019-08-07 08:00:00 25.6 0 Calma 4 Sudoeste 0 -- -- 83
2019-08-07 07:00:00 24.8 0 Calma 4 Norte 0 -- -- 85
2019-08-07 06:00:00 25 0 Calma 5 Norte 0 -- -- 87
2019-08-07 05:00:00 25.2 0 Calma 4 Sudoeste 0 -- -- 84
2019-08-07 04:00:00 25.4 0 Calma 8 Noroeste 0 -- -- 84
2019-08-07 03:00:00 26 2 Noroeste 7 Sur 0 -- -- 86
2019-08-07 02:00:00 26.1 3 Sur 8 Sudoeste 0 -- -- 86
2019-08-07 01:00:00 26.1 0 Calma 8 Sudoeste 0 -- -- 88
2019-08-07 00:00:00 26.4 4 Sudoeste 8 Sur 0 -- -- 89
2019-08-06 23:00:00 26.5 4 Sudoeste 7 Sur 0 -- -- 88
2019-08-06 22:00:00 26.7 2 Sudeste 8 Sudeste 0 -- -- 86
2019-08-06 21:00:00 27.5 5 Sur 17 Sudoeste 0 -- -- 81
2019-08-06 20:00:00 28.5 8 Sur 26 Sudoeste 0 -- -- 76
2019-08-06 19:00:00 28.7 12 Sudoeste 27 Sur 0 -- -- 73
2019-08-06 18:00:00 28.5 13 Sur 28 Sudoeste 0 -- -- 77
2019-08-06 17:00:00 30.2 13 Sudoeste 32 Oeste 0 -- -- 64
2019-08-06 16:00:00 30.2 14 Sudoeste 28 Sudoeste 0 -- -- 64
2019-08-06 15:00:00 30.1 15 Sur 28 Sur 0 -- -- 66
2019-08-06 14:00:00 28.9 17 Sur 29 Sur 0 -- -- 75
2019-08-06 13:00:00 28.4 14 Sur 27 Sur 0 -- -- 76
2019-08-06 12:00:00 28.5 6 Sudoeste 17 Sur 0 -- -- 72
2019-08-06 11:00:00 29.4 3 Norte 8 Este 0 -- -- 60
2019-08-06 10:00:00 28.4 4 Nordeste 11 Nordeste 0 -- -- 67
2019-08-06 09:00:00 26.7 5 Nordeste 11 Este 0 -- -- 77
2019-08-06 08:00:00 24.7 4 Norte 12 Norte 0 -- -- 74
2019-08-06 07:00:00 24.2 6 Norte 14 Norte 0 -- -- 74
2019-08-06 06:00:00 24.8 0 Calma 5 Sudoeste 0 -- -- 81
2019-08-06 05:00:00 24.9 2 Norte 13 Norte 0 -- -- 85
2019-08-06 04:00:00 25.4 0 Calma 8 Nordeste 0 -- -- 83
2019-08-06 03:00:00 25.8 3 Norte 8 Sudeste 0 -- -- 87
2019-08-06 02:00:00 26.1 3 Sudeste 10 Sudeste 0 -- -- 87
2019-08-06 01:00:00 26.4 3 Sur 8 Sur 0 -- -- 83
2019-08-06 00:00:00 26.3 0 Calma 6 Sudoeste 0 -- -- 80
2019-08-05 23:00:00 26.8 2 Oeste 9 Oeste 0 -- -- 84
2019-08-05 22:00:00 27 3 Oeste 17 Sudoeste 0 -- -- 85
2019-08-05 21:00:00 27.3 6 Sudoeste 16 Sudoeste 0 -- -- 75
2019-08-05 20:00:00 27.5 10 Sudoeste 19 Sudoeste 0 -- -- 78
2019-08-05 19:00:00 27.6 10 Sudoeste 21 Sur 0 -- -- 79
2019-08-05 18:00:00 28.3 11 Sudoeste 24 Sudoeste 0 -- -- 78
2019-08-05 17:00:00 28.1 13 Sudoeste 27 Sudoeste 0 -- -- 77
2019-08-05 16:00:00 29.4 13 Sudoeste 24 Sudoeste 0 -- -- 73
2019-08-05 15:00:00 29.4 11 Sudoeste 22 Sudoeste 0 -- -- 67
2019-08-05 14:00:00 29.9 9 Sudoeste 21 Sur 0 -- -- 67
2019-08-05 13:00:00 28.9 9 Sur 18 Sur 0 -- -- 71
2019-08-05 12:00:00 29.4 8 Sudoeste 18 Sudoeste 0 -- -- 64
2019-08-05 11:00:00 30.6 3 Nordeste 7 Nordeste 0 -- -- 48
2019-08-05 10:00:00 28.7 4 Nordeste 12 Este 0 -- -- 54
2019-08-05 09:00:00 27 7 Nordeste 12 Norte 0 -- -- 59
2019-08-05 08:00:00 25.1 4 Norte 8 Nordeste 0 -- -- 58
2019-08-05 07:00:00 23.9 3 Nordeste 7 Norte 0 -- -- 63
2019-08-05 06:00:00 23.9 3 Norte 7 Norte 0 -- -- 64
2019-08-05 05:00:00 24.3 0 Calma 6 Norte 0 -- -- 63
2019-08-05 04:00:00 24.9 3 Noroeste 6 Noroeste 0 -- -- 60
2019-08-05 03:00:00 25.2 0 Calma 8 Noroeste 0 -- -- 62
2019-08-05 02:00:00 26 2 Noroeste 6 Norte 0 -- -- 62
2019-08-05 01:00:00 26.5 3 Este 9 Este 0 -- -- 62
2019-08-05 00:00:00 27.1 0 Calma 10 Sudoeste 0 -- -- 69
2019-08-04 23:00:00 27.5 6 Sudoeste 12 Sudoeste 0 -- -- 64
2019-08-04 22:00:00 27.9 5 Oeste 13 Oeste 0 -- -- 61
2019-08-04 21:00:00 28.1 6 Sudoeste 14 Sudoeste 0 -- -- 60
2019-08-04 20:00:00 28.3 7 Sudoeste 16 Sudoeste 0 -- -- 64
2019-08-04 19:00:00 28.5 8 Sudoeste 17 Sudoeste 0 -- -- 67
2019-08-04 18:00:00 29.7 9 Sudoeste 19 Sudoeste 0 -- -- 52
2019-08-04 17:00:00 29.9 8 Sudoeste 18 Sudoeste 0 -- -- 58
2019-08-04 16:00:00 30 7 Sudoeste 15 Sur 0 -- -- 61
2019-08-04 15:00:00 30.6 9 Sudoeste 23 Sur 0 -- -- 53
2019-08-04 14:00:00 30.2 10 Sudoeste 21 Sudoeste 0 -- -- 56
2019-08-04 13:00:00 29.9 9 Sudoeste 19 Sudoeste 0 -- -- 46
2019-08-04 12:00:00 30.1 8 Sur 15 Sur 0 -- -- 47
2019-08-04 11:00:00 31.4 4 Sudeste 8 Sudeste 0 -- -- 42
2019-08-04 10:00:00 29.1 4 Nordeste 11 Nordeste 0 -- -- 46
2019-08-04 09:00:00 27.4 5 Norte 10 Nordeste 0 -- -- 47
2019-08-04 08:00:00 24.8 6 Nordeste 9 Nordeste 0 -- -- 51
2019-08-04 07:00:00 25 3 Nordeste 11 Norte 0 -- -- 52
2019-08-04 06:00:00 24.8 4 Nordeste 6 Norte 0 -- -- 52
2019-08-04 05:00:00 25.1 4 Nordeste 10 Nordeste 0 -- -- 52
2019-08-04 04:00:00 24.3 5 Norte 9 Nordeste 0 -- -- 54
2019-08-04 03:00:00 25.4 4 Noroeste 9 Noroeste 0 -- -- 53
2019-08-04 02:00:00 25.5 2 Norte 8 Noroeste 0 -- -- 59
2019-08-04 01:00:00 26 0 Calma 6 Sur 0 -- -- 61
2019-08-04 00:00:00 26.4 0 Calma 5 Sudeste 0 -- -- 60
2019-08-03 23:00:00 26.9 0 Calma 11 Oeste 0 -- -- 64
2019-08-03 22:00:00 27.1 4 Oeste 12 Oeste 0 -- -- 60
2019-08-03 21:00:00 27.3 6 Sudoeste 13 Sudoeste 0 -- -- 64
2019-08-03 20:00:00 27.7 6 Sudoeste 19 Sudoeste 0 -- -- 61
2019-08-03 19:00:00 28.2 10 Sudoeste 22 Sudoeste 0 -- -- 61
2019-08-03 18:00:00 28.6 10 Sudoeste 21 Sudoeste 0 -- -- 61
2019-08-03 17:00:00 29.4 9 Sudoeste 22 Sudoeste 0 -- -- 60
2019-08-03 16:00:00 29.7 11 Sudoeste 26 Sudoeste 0 -- -- 57
2019-08-03 15:00:00 29 13 Sudoeste 25 Sudoeste 0 -- -- 59
2019-08-03 14:00:00 29 11 Sudoeste 26 Sudoeste 0 -- -- 58
2019-08-03 13:00:00 28.8 13 Sur 24 Sudoeste 0 -- -- 53
2019-08-03 12:00:00 32.1 5 Este 10 Sudeste 0 -- -- 40
2019-08-03 11:00:00 31.3 4 Sudeste 8 Nordeste 0 -- -- 41
2019-08-03 10:00:00 29.1 3 Sudeste 9 Nordeste 0 -- -- 45
2019-08-03 09:00:00 27 3 Este 5 Este 0 -- -- 54
2019-08-03 08:00:00 23.8 0 Calma 4 Norte 0 -- -- 52
2019-08-03 07:00:00 22.7 3 Nordeste 5 Nordeste 0 -- -- 54
2019-08-03 06:00:00 22.9 2 Norte 4 Nordeste 0 -- -- 55
2019-08-03 05:00:00 23.2 3 Nordeste 8 Nordeste 0 -- -- 54
2019-08-03 04:00:00 23.4 4 Nordeste 8 Nordeste 0 -- -- 55
2019-08-03 03:00:00 24.2 2 Norte 8 Noroeste 0 -- -- 59
2019-08-03 02:00:00 24.5 4 Norte 6 Noroeste 0 -- -- 61
2019-08-03 01:00:00 25.2 3 Norte 10 Este 0 -- -- 63
2019-08-03 00:00:00 25.5 5 Este 10 Este 0 -- -- 62
2019-08-02 23:00:00 26.7 5 Este 14 Este 0 -- -- 50
2019-08-02 22:00:00 27 6 Este 17 Este 0 -- -- 49
2019-08-02 21:00:00 27.8 8 Este 16 Este 0 -- -- 51
2019-08-02 20:00:00 28.6 5 Sur 13 Sur 0 -- -- 47
2019-08-02 19:00:00 28.8 8 Sur 15 Sudoeste 0 -- -- 53
2019-08-02 18:00:00 29.4 5 Sur 18 Sudoeste 0 -- -- 50
2019-08-02 17:00:00 29.4 10 Sudoeste 22 Sudoeste 0 -- -- 52
2019-08-02 16:00:00 29.4 10 Sudoeste 27 Sudoeste 0 -- -- 57
2019-08-02 15:00:00 28.9 13 Sur 25 Sudoeste 0 -- -- 57
2019-08-02 14:00:00 31 9 Sudeste 21 Sudoeste 0 -- -- 44
2019-08-02 13:00:00 32.4 9 Este 18 Nordeste 0 -- -- 40
2019-08-02 12:00:00 32.3 8 Este 22 Este 0 -- -- 41
2019-08-02 11:00:00 30.4 11 Nordeste 24 Nordeste 0 -- -- 44
2019-08-02 10:00:00 28.7 17 Nordeste 28 Nordeste 0 -- -- 43
2019-08-02 09:00:00 27.8 10 Nordeste 23 Nordeste 0 -- -- 44
2019-08-02 08:00:00 25.8 11 Nordeste 22 Nordeste 0 -- -- 69
2019-08-02 07:00:00 25.4 10 Nordeste 20 Nordeste 0 -- -- 82
2019-08-02 06:00:00 25.5 13 Nordeste 22 Nordeste 0 -- -- 81
2019-08-02 05:00:00 25.1 5 Norte 12 Nordeste 0 -- -- 84
2019-08-02 04:00:00 25.8 3 Nordeste 15 Nordeste 0 -- -- 84
2019-08-02 03:00:00 25.6 8 Norte 15 Norte 0 -- -- 82
2019-08-02 02:00:00 26.3 2 Norte 9 Nordeste 0 -- -- 81
2019-08-02 01:00:00 26.3 3 Este 10 Este 0 -- -- 82
2019-08-02 00:00:00 26.8 4 Este 9 Nordeste 0 -- -- 74
2019-08-01 23:00:00 27.3 6 Nordeste 16 Nordeste 0 -- -- 71
2019-08-01 22:00:00 27.4 7 Este 16 Nordeste 0 -- -- 72
2019-08-01 21:00:00 28 10 Este 24 Nordeste 0 -- -- 68
2019-08-01 20:00:00 29 16 Nordeste 26 Este 0 -- -- 64
2019-08-01 19:00:00 28 6 Sudeste 17 Este 0 -- -- 70
2019-08-01 18:00:00 29 2 Este 18 Sur 0 -- -- 61
2019-08-01 17:00:00 29.5 4 Sudoeste 17 Sudoeste 0 -- -- 58
2019-08-01 16:00:00 30.6 8 Sur 23 Sur 0 -- -- 53
2019-08-01 15:00:00 31.2 13 Sur 27 Sur 0 -- -- 51
2019-08-01 14:00:00 31.9 9 Sudoeste 23 Sudoeste 0 -- -- 51
2019-08-01 13:00:00 33.6 5 Nordeste 13 Nordeste 0 -- -- 47
2019-08-01 12:00:00 32.3 0 Calma 15 Este 0 -- -- 48
2019-08-01 11:00:00 30.6 7 Nordeste 27 Nordeste 0 -- -- 54
2019-08-01 10:00:00 28.1 16 Nordeste 26 Nordeste 0 -- -- 57
2019-08-01 09:00:00 27.4 10 Nordeste 24 Nordeste 0 -- -- 57
2019-08-01 08:00:00 26.6 12 Nordeste 22 Nordeste 0 -- -- 56
2019-08-01 07:00:00 25.9 10 Nordeste 27 Nordeste 0 -- -- 59
2019-08-01 06:00:00 25.3 12 Nordeste 33 Nordeste 0 -- -- 64
2019-08-01 05:00:00 25.6 13 Nordeste 30 Nordeste 0 -- -- 61
2019-08-01 04:00:00 25.5 12 Norte 26 Nordeste 0 -- -- 57
2019-08-01 03:00:00 25.4 14 Nordeste 27 Nordeste 0 -- -- 63
2019-08-01 02:00:00 24.9 12 Nordeste 28 Nordeste 0 -- -- 66
2019-08-01 01:00:00 25.4 12 Nordeste 28 Nordeste 0 -- -- 61
2019-08-01 00:00:00 24.7 14 Nordeste 32 Nordeste 0 -- -- 68
2019-07-31 23:00:00 25 19 Nordeste 35 Nordeste 0 -- -- 66
2019-07-31 22:00:00 25.5 16 Nordeste 33 Nordeste 0 -- -- 64
2019-07-31 21:00:00 26.3 14 Nordeste 30 Nordeste 0 -- -- 57
2019-07-31 20:00:00 27.4 13 Este 30 Nordeste 0 -- -- 53
2019-07-31 19:00:00 28.1 17 Nordeste 27 Nordeste 0 -- -- 50
2019-07-31 18:00:00 29.1 11 Este 26 Este 0 -- -- 49
2019-07-31 17:00:00 28.9 16 Nordeste 31 Nordeste 0 -- -- 48
2019-07-31 16:00:00 28.7 15 Nordeste 30 Nordeste 0 -- -- 51
2019-07-31 15:00:00 28.3 19 Nordeste 36 Nordeste 0 -- -- 51
2019-07-31 14:00:00 28.2 19 Nordeste 41 Este 0 -- -- 53
2019-07-31 13:00:00 27.1 15 Nordeste 37 Nordeste 0 -- -- 54
2019-07-31 12:00:00 26.9 17 Nordeste 43 Nordeste 0 -- -- 53
2019-07-31 11:00:00 27.7 21 Nordeste 46 Nordeste 0 -- -- 56
2019-07-31 10:00:00 27.2 19 Este 37 Este 0 -- -- 58
2019-07-31 09:00:00 25.6 19 Nordeste 32 Este 0 -- -- 65
2019-07-31 08:00:00 24.9 16 Nordeste 34 Nordeste 0 -- -- 68
2019-07-31 07:00:00 24.5 14 Nordeste 28 Nordeste 0 -- -- 70
2019-07-31 06:00:00 24.5 17 Nordeste 26 Este 0 -- -- 69
2019-07-31 05:00:00 24.8 15 Nordeste 28 Nordeste 0 -- -- 70
2019-07-31 04:00:00 24.8 12 Nordeste 26 Este 0 -- -- 72
2019-07-31 03:00:00 25 18 Nordeste 26 Nordeste 0 -- -- 71
2019-07-31 02:00:00 25.2 18 Nordeste 29 Este 0 -- -- 74
2019-07-31 01:00:00 25.4 12 Nordeste 24 Nordeste 0 -- -- 78
2019-07-31 00:00:00 26 14 Nordeste 24 Nordeste 0 -- -- 77
2019-07-30 23:00:00 26.4 12 Este 26 Nordeste 0 -- -- 76
2019-07-30 22:00:00 26.2 0 Calma 6 Sur 0 -- -- 75
2019-07-30 21:00:00 26.7 3 Sur 11 Sur 0 -- -- 72
2019-07-30 20:00:00 27.1 6 Sur 16 Sudoeste 0 -- -- 67
2019-07-30 19:00:00 27.7 7 Sudoeste 18 Sur 0 -- -- 59
2019-07-30 18:00:00 28.3 10 Sur 20 Sur 0 -- -- 54
2019-07-30 17:00:00 29.7 9 Sur 20 Sur 0 -- -- 46
2019-07-30 16:00:00 30.4 8 Sudoeste 24 Sur 0 -- -- 44
2019-07-30 15:00:00 29.1 14 Sur 45 Sudoeste 0 -- -- 59
2019-07-30 14:00:00 28.4 13 Sur 25 Sur 0 -- -- 64
2019-07-30 13:00:00 28.5 12 Sur 22 Sur 0 -- -- 65
2019-07-30 12:00:00 29.1 7 Sudoeste 18 Sur 0 -- -- 62
2019-07-30 11:00:00 29.2 5 Sur 10 Norte 0 -- -- 57
2019-07-30 10:00:00 27.7 6 Nordeste 15 Norte 0 -- -- 61
2019-07-30 09:00:00 25.8 8 Nordeste 13 Norte 0 -- -- 70
2019-07-30 08:00:00 23.7 5 Norte 11 Norte 0 -- -- 74
2019-07-30 07:00:00 22.9 3 Norte 5 Norte 0 -- -- 84
2019-07-30 06:00:00 23.1 2 Nordeste 6 Norte 0 -- -- 86
2019-07-30 05:00:00 23.2 4 Norte 6 Nordeste 0 -- -- 85
2019-07-30 04:00:00 24 0 Calma 6 Noroeste 0 -- -- 82
2019-07-30 03:00:00 24.2 3 Noroeste 7 Oeste 0 -- -- 80
2019-07-30 02:00:00 24.4 0 Calma 7 Noroeste 0 -- -- 77
2019-07-30 01:00:00 24.6 0 Calma 5 Noroeste 0 -- -- 75
2019-07-30 00:00:00 25.3 2 Oeste 7 Sudoeste 0 -- -- 74
2019-07-29 23:00:00 25.7 4 Sudoeste 8 Sur 0 -- -- 74
2019-07-29 22:00:00 25.8 4 Sudoeste 11 Sudoeste 0 -- -- 73
2019-07-29 21:00:00 26 6 Sur 19 Sur 0 -- -- 70
2019-07-29 20:00:00 26.5 9 Sudoeste 24 Sudoeste 0 -- -- 69
2019-07-29 19:00:00 27 12 Sur 23 Sur 0 -- -- 67
2019-07-29 18:00:00 27.1 13 Sur 26 Sur 0 -- -- 67
2019-07-29 17:00:00 27.2 15 Sur 27 Sur 0 -- -- 64
2019-07-29 16:00:00 28.1 14 Sur 27 Sudoeste 0 -- -- 59
2019-07-29 15:00:00 28.2 13 Sur 28 Sur 0 -- -- 60
2019-07-29 14:00:00 28.4 10 Sur 23 Sur 0 -- -- 61
2019-07-29 13:00:00 27.9 12 Sur 25 Sur 0 -- -- 61
2019-07-29 12:00:00 27.7 12 Sur 23 Sur 0 -- -- 67
2019-07-29 11:00:00 27.2 9 Sur 20 Sur 0 -- -- 67
2019-07-29 10:00:00 25.7 9 Sudeste 13 Sur 0 -- -- 67
2019-07-29 09:00:00 25.1 3 Este 7 Norte 0 -- -- 60
2019-07-29 08:00:00 22.9 5 Norte 7 Norte 0 -- -- 63
2019-07-29 07:00:00 21.4 4 Norte 8 Nordeste 0 -- -- 67
2019-07-29 06:00:00 21.6 3 Norte 5 Norte 0 -- -- 71
2019-07-29 05:00:00 22 2 Nordeste 5 Norte 0 -- -- 70
2019-07-29 04:00:00 22.4 2 Nordeste 4 Norte 0 -- -- 67
2019-07-29 03:00:00 22.6 3 Norte 4 Norte 0 -- -- 63
2019-07-29 02:00:00 23.3 3 Noroeste 10 Oeste 0 -- -- 58
2019-07-29 01:00:00 23.8 0 Calma 10 Oeste 0 -- -- 48
2019-07-29 00:00:00 24.3 3 Oeste 8 Noroeste 0 -- -- 47
2019-07-28 23:00:00 24.9 3 Oeste 12 Oeste 0 -- -- 47
2019-07-28 22:00:00 25.6 4 Noroeste 17 Oeste 0 -- -- 43
2019-07-28 21:00:00 25.8 9 Sudoeste 27 Sudoeste 0 -- -- 51
2019-07-28 20:00:00 26.8 12 Sudoeste 29 Sudoeste 0 -- -- 49
2019-07-28 19:00:00 28.5 10 Sudoeste 28 Sudoeste 0 -- -- 40
2019-07-28 18:00:00 28.7 11 Sudoeste 30 Sudoeste 0 -- -- 38
2019-07-28 17:00:00 30.1 9 Sudoeste 30 Sudoeste 0 -- -- 36
2019-07-28 16:00:00 30 6 Norte 28 Oeste 0 -- -- 38
2019-07-28 15:00:00 29.2 12 Sudoeste 28 Sudoeste 0 -- -- 47
2019-07-28 14:00:00 29.5 7 Sur 24 Sur 0 -- -- 50
2019-07-28 13:00:00 27.7 12 Sur 22 Sur 0 -- -- 54
2019-07-28 12:00:00 28.5 4 Este 17 Sudoeste 0 -- -- 53
2019-07-28 11:00:00 26.3 9 Sudoeste 23 Nordeste 0 -- -- 57
2019-07-28 10:00:00 26.4 9 Norte 24 Nordeste 0 -- -- 56
2019-07-28 09:00:00 25.4 11 Norte 24 Nordeste 0 -- -- 59
2019-07-28 08:00:00 24.2 7 Norte 13 Norte 0 -- -- 59
2019-07-28 07:00:00 23.5 6 Noroeste 19 Norte 0 -- -- 58
2019-07-28 06:00:00 23.7 3 Norte 20 Norte 0 -- -- 57
2019-07-28 05:00:00 24.4 8 Norte 22 Noroeste 0 -- -- 57
2019-07-28 04:00:00 25.4 7 Norte 19 Norte 0 -- -- 54
2019-07-28 03:00:00 26.2 8 Norte 23 Noroeste 0 -- -- 54
2019-07-28 02:00:00 26.7 4 Noroeste 24 Noroeste 0 -- -- 54
2019-07-28 01:00:00 27.4 4 Noroeste 12 Norte 0 -- -- 47
2019-07-28 00:00:00 27.4 0 Calma 9 Sudeste 0 -- -- 54
2019-07-27 23:00:00 27.2 3 Sur 9 Sudoeste 0 -- -- 63
2019-07-26 12:00:00 29.3 7 Sudoeste 18 Sudoeste 0 -- -- 67
2019-07-26 11:00:00 29.7 10 Sur 17 Sudoeste 0 -- -- 48
2019-07-26 10:00:00 30.1 4 Nordeste 8 Nordeste 0 -- -- 44
2019-07-26 09:00:00 28.7 6 Nordeste 8 Este 0 -- -- 46
2019-07-26 08:00:00 26.4 4 Norte 6 Nordeste 0 -- -- 54
2019-07-26 07:00:00 24.7 3 Nordeste 7 Nordeste 0 -- -- 53
2019-07-26 06:00:00 24.7 4 Nordeste 6 Nordeste 0 -- -- 54
2019-07-26 05:00:00 24.9 3 Norte 5 Nordeste 0 -- -- 54
2019-07-26 04:00:00 25.6 3 Norte 6 Norte 0 -- -- 55
2019-07-26 03:00:00 26.3 3 Norte 7 Norte 0 -- -- 57
2019-07-26 02:00:00 26.3 2 Norte 5 Norte 0 -- -- 59
2019-07-26 01:00:00 27.5 4 Nordeste 10 Norte 0 -- -- 57
2019-07-26 00:00:00 27.6 3 Norte 8 Noroeste 0 -- -- 54
2019-07-25 23:00:00 28 0 Calma 11 Oeste 0 -- -- 60
2019-07-25 22:00:00 28 6 Sudoeste 17 Oeste 0 -- -- 64
2019-07-25 21:00:00 27.9 5 Oeste 19 Sudoeste 0 -- -- 69
2019-07-25 20:00:00 28.5 8 Sudoeste 21 Sudoeste 0 -- -- 70
2019-07-25 19:00:00 29.9 7 Sudoeste 21 Sudoeste 0 -- -- 54
2019-07-25 18:00:00 29.6 8 Sudoeste 19 Sur 0 -- -- 66
2019-07-25 17:00:00 29.7 9 Sudoeste 18 Sudoeste 0 -- -- 62
2019-07-25 16:00:00 30.2 8 Sudoeste 22 Oeste 0 -- -- 62
2019-07-25 15:00:00 29.9 11 Sudoeste 22 Sudoeste 0 -- -- 65
2019-07-25 14:00:00 29.4 8 Sudoeste 25 Sudoeste 0 -- -- 72
2019-07-25 13:00:00 29.5 13 Sur 23 Sur 0 -- -- 64
2019-07-25 12:00:00 32.9 4 Sur 9 Nordeste 0 -- -- 46
2019-07-25 11:00:00 31.7 4 Sudeste 11 Nordeste 0 -- -- 55
2019-07-25 10:00:00 29.7 6 Nordeste 12 Nordeste 0 -- -- 59
2019-07-25 09:00:00 27.3 8 Norte 14 Nordeste 0 -- -- 69
2019-07-25 08:00:00 25.7 8 Nordeste 12 Nordeste 0 -- -- 70
2019-07-25 07:00:00 24.9 5 Norte 9 Nordeste 0 -- -- 71
2019-07-25 06:00:00 24.9 3 Nordeste 6 Nordeste 0 -- -- 72
2019-07-25 05:00:00 25.1 0 Calma 7 Norte 0 -- -- 70
2019-07-25 04:00:00 25.7 4 Noroeste 6 Noroeste 0 -- -- 67
2019-07-25 03:00:00 25.7 0 Calma 5 Sudoeste 0 -- -- 70
2019-07-25 02:00:00 26.2 0 Calma 4 Sudoeste 0 -- -- 65
2019-07-25 01:00:00 26.6 3 Norte 5 Norte 0 -- -- 64
2019-07-25 00:00:00 27.1 3 Noroeste 9 Oeste 0 -- -- 64
2019-07-24 23:00:00 27.1 3 Oeste 12 Sudoeste 0 -- -- 74
2019-07-24 22:00:00 27.4 5 Sudoeste 11 Sudoeste 0 -- -- 72
2019-07-24 21:00:00 27.4 6 Sudoeste 14 Sudoeste 0 -- -- 73
2019-07-24 20:00:00 28.1 8 Sur 14 Sur 0 -- -- 65
2019-07-24 19:00:00 28.2 10 Sur 18 Sur 0 -- -- 74
2019-07-24 18:00:00 28.7 10 Sudoeste 21 Sudoeste 0 -- -- 67
2019-07-24 17:00:00 29.5 12 Sur 22 Sudoeste 0 -- -- 60
2019-07-24 16:00:00 29.7 12 Sudoeste 26 Sudoeste 0 -- -- 57
2019-07-24 15:00:00 31.6 10 Sudoeste 23 Sudoeste 0 -- -- 44
2019-07-24 14:00:00 32.1 11 Sudoeste 19 Sur 0 -- -- 35
2019-07-24 13:00:00 33.2 7 Sudoeste 16 Sudoeste 0 -- -- 35
2019-07-24 12:00:00 32.3 8 Sudoeste 14 Sudoeste 0 -- -- 31
2019-07-24 11:00:00 31.5 6 Sur 10 Sudoeste 0 -- -- 39
2019-07-24 10:00:00 30.4 5 Nordeste 10 Nordeste 0 -- -- 38
2019-07-24 09:00:00 28.4 6 Nordeste 10 Norte 0 -- -- 48
2019-07-24 08:00:00 26.2 3 Norte 7 Norte 0 -- -- 52
2019-07-24 07:00:00 25.2 3 Norte 9 Noroeste 0 -- -- 55
2019-07-24 06:00:00 25.5 4 Noroeste 7 Noroeste 0 -- -- 57
2019-07-24 05:00:00 25.8 4 Norte 9 Nordeste 0 -- -- 60
2019-07-24 04:00:00 26.1 5 Norte 11 Norte 0 -- -- 61
2019-07-24 03:00:00 26.2 6 Norte 12 Norte 0 -- -- 57
2019-07-24 02:00:00 26.5 4 Norte 6 Norte 0 -- -- 56
2019-07-24 01:00:00 27.2 2 Norte 7 Norte 0 -- -- 50
2019-07-24 00:00:00 27.5 3 Norte 9 Norte 0 -- -- 50
2019-07-23 23:00:00 27.6 3 Norte 5 Norte 0 -- -- 52
2019-07-23 22:00:00 27.8 0 Calma 12 Sudoeste 0 -- -- 59
2019-07-23 21:00:00 28.1 6 Sudoeste 14 Sudoeste 0 -- -- 56
2019-07-23 20:00:00 28.5 8 Sudoeste 18 Sur 0 -- -- 66
2019-07-23 19:00:00 28.5 10 Sur 18 Sur 0 -- -- 68
2019-07-23 18:00:00 29 10 Sur 23 Sur 0 -- -- 63
2019-07-23 17:00:00 31.3 10 Sudoeste 23 Sur 0 -- -- 42
2019-07-23 16:00:00 31.6 11 Sudoeste 26 Sur 0 -- -- 41
2019-07-23 15:00:00 31 12 Sudoeste 24 Sudoeste 0 -- -- 51
2019-07-23 14:00:00 31 8 Sudoeste 22 Sudoeste 0 -- -- 55
2019-07-23 13:00:00 30.8 8 Sudoeste 18 Oeste 0 -- -- 57
2019-07-23 12:00:00 32.4 6 Sur 11 Sur 0 -- -- 40
2019-07-23 11:00:00 32.7 0 Calma 7 Nordeste 0 -- -- 38
2019-07-23 10:00:00 30 4 Nordeste 9 Nordeste 0 -- -- 42
2019-07-23 09:00:00 28.8 4 Nordeste 10 Nordeste 0 -- -- 47
2019-07-23 08:00:00 27 5 Norte 13 Norte 0 -- -- 50
2019-07-23 07:00:00 24.5 4 Norte 6 Norte 0 -- -- 59
2019-07-23 06:00:00 25.1 4 Norte 8 Norte 0 -- -- 58
2019-07-23 05:00:00 25.1 3 Norte 7 Norte 0 -- -- 59
2019-07-23 04:00:00 25.2 3 Norte 5 Norte 0 -- -- 57
2019-07-23 03:00:00 25.9 2 Norte 9 Norte 0 -- -- 54
2019-07-23 02:00:00 26.6 4 Norte 10 Norte 0 -- -- 50
2019-07-23 01:00:00 26.9 3 Norte 8 Norte 0 -- -- 50
2019-07-23 00:00:00 27.2 2 Norte 7 Sudoeste 0 -- -- 48
2019-07-22 23:00:00 28 3 Sudoeste 14 Sudoeste 0 -- -- 50
2019-07-22 22:00:00 28.7 7 Sudoeste 16 Sudoeste 0 -- -- 45
2019-07-22 21:00:00 29.3 6 Sudoeste 21 Sudoeste 0 -- -- 44
2019-07-22 20:00:00 30.2 7 Sudoeste 19 Sudoeste 0 -- -- 43
2019-07-22 19:00:00 30.2 9 Sudoeste 23 Sudoeste 0 -- -- 47
2019-07-22 18:00:00 30.7 12 Sudoeste 23 Sudoeste 0 -- -- 46
2019-07-22 17:00:00 31.7 6 Sudoeste 23 Sudoeste 0 -- -- 46
2019-07-22 16:00:00 31.8 8 Sudoeste 23 Sudoeste 0 -- -- 49
2019-07-22 15:00:00 31.6 11 Sudoeste 22 Oeste 0 -- -- 50
2019-07-22 14:00:00 30.6 14 Sudoeste 24 Sudoeste 0 -- -- 50
2019-07-22 13:00:00 31.4 9 Sudoeste 18 Sudoeste 0 -- -- 51
2019-07-22 12:00:00 34.2 8 Este 19 Este 0 -- -- 38
2019-07-22 11:00:00 32.4 8 Nordeste 15 Nordeste 0 -- -- 43
2019-07-22 10:00:00 30.2 8 Nordeste 13 Nordeste 0 -- -- 45
2019-07-22 09:00:00 27.4 6 Nordeste 16 Norte 0 -- -- 52
2019-07-22 08:00:00 26.3 6 Nordeste 9 Nordeste 0 -- -- 51
2019-07-22 07:00:00 25.9 4 Norte 9 Norte 0 -- -- 50
2019-07-22 06:00:00 25.3 3 Norte 11 Norte 0 -- -- 57
2019-07-22 05:00:00 26.3 5 Norte 12 Norte 0 -- -- 54
2019-07-22 04:00:00 26.1 7 Norte 16 Norte 0 -- -- 57
2019-07-22 03:00:00 26.2 5 Norte 13 Nordeste 0 -- -- 56
2019-07-22 02:00:00 26.9 7 Norte 16 Noroeste 0 -- -- 54
2019-07-22 01:00:00 27.4 5 Norte 15 Nordeste 0 -- -- 49
2019-07-22 00:00:00 28.6 12 Nordeste 17 Nordeste 0 -- -- 47
2019-07-21 23:00:00 28.8 8 Nordeste 13 Nordeste 0 -- -- 48
2019-07-21 22:00:00 29.1 3 Nordeste 10 Oeste 0 -- -- 51
2019-07-21 21:00:00 28.9 4 Oeste 15 Oeste 0 -- -- 57
2019-07-21 20:00:00 29.3 5 Oeste 16 Oeste 0 -- -- 58
2019-07-21 19:00:00 29.2 8 Sudoeste 23 Sur 0 -- -- 58
2019-07-21 18:00:00 30 7 Oeste 28 Sur 0 -- -- 57
2019-07-21 17:00:00 30 13 Sur 27 Sur 0 -- -- 57
2019-07-21 16:00:00 31.5 8 Sur 17 Sudoeste 0 -- -- 52
2019-07-21 15:00:00 32.2 7 Sur 15 Sudoeste 0 -- -- 49
2019-07-21 14:00:00 31.5 9 Sur 18 Sudoeste 0 -- -- 53
2019-07-21 13:00:00 30.4 7 Sudoeste 18 Este 0 -- -- 59
2019-07-21 12:00:00 33.4 8 Nordeste 19 Este 0 -- -- 43
2019-07-21 11:00:00 31.2 8 Nordeste 20 Nordeste 0 -- -- 55
2019-07-21 10:00:00 28.8 12 Nordeste 25 Nordeste 0 -- -- 61
2019-07-21 09:00:00 26.5 18 Nordeste 29 Nordeste 0 -- -- 77
2019-07-21 08:00:00 25.3 6 Nordeste 12 Este 0 -- -- 72
2019-07-21 07:00:00 24.8 7 Norte 14 Norte 0 -- -- 54
2019-07-21 06:00:00 25.5 8 Nordeste 13 Nordeste 0 -- -- 47
2019-07-21 05:00:00 25.4 5 Norte 10 Norte 0 -- -- 46
2019-07-21 04:00:00 25.7 5 Norte 8 Norte 0 -- -- 45
2019-07-21 03:00:00 26.6 4 Norte 9 Nordeste 0 -- -- 43
2019-07-21 02:00:00 27.1 5 Nordeste 10 Norte 0 -- -- 45
2019-07-21 01:00:00 27.9 6 Norte 16 Norte 0 -- -- 44
2019-07-21 00:00:00 28.3 10 Nordeste 19 Este 0 -- -- 47
2019-07-20 23:00:00 28.7 12 Nordeste 21 Nordeste 0 -- -- 49
2019-07-20 22:00:00 29 13 Nordeste 22 Nordeste 0 -- -- 50
2019-07-20 21:00:00 29.8 12 Este 22 Este 0 -- -- 47
2019-07-20 20:00:00 31.2 10 Este 21 Este 0 -- -- 45
2019-07-20 19:00:00 32.3 13 Este 24 Este 0 -- -- 41
2019-07-20 18:00:00 30.8 9 Sur 18 Sudoeste 0 -- -- 54
2019-07-20 17:00:00 31.2 9 Sudoeste 25 Sudoeste 0 -- -- 52
2019-07-20 16:00:00 30.2 9 Sudoeste 26 Sur 0 -- -- 65
2019-07-20 15:00:00 29.5 10 Sur 28 Sur 0 -- -- 64
2019-07-20 14:00:00 30.2 9 Sudoeste 24 Sudoeste 0 -- -- 59
2019-07-20 13:00:00 31 10 Sur 23 Sur 0 -- -- 51
2019-07-20 12:00:00 32.7 6 Este 10 Este 0 -- -- 48
2019-07-20 11:00:00 31 6 Este 16 Nordeste 0 -- -- 51
2019-07-20 10:00:00 29.1 9 Nordeste 19 Nordeste 0 -- -- 60
2019-07-20 09:00:00 27.4 10 Nordeste 21 Nordeste 0 -- -- 57
2019-07-20 08:00:00 25.8 12 Nordeste 17 Nordeste 0 -- -- 63
2019-07-20 07:00:00 24.9 5 Norte 12 Noroeste 0 -- -- 69
2019-07-20 06:00:00 24.4 4 Norte 12 Norte 0 -- -- 73
2019-07-20 05:00:00 24.6 5 Norte 10 Norte 0 -- -- 75
2019-07-20 04:00:00 24.8 5 Norte 12 Norte 0 -- -- 72
2019-07-20 03:00:00 25 3 Norte 15 Nordeste 0 -- -- 69
2019-07-20 02:00:00 25.8 8 Nordeste 15 Nordeste 0 -- -- 70
2019-07-20 01:00:00 26.2 7 Nordeste 14 Este 0 -- -- 67
2019-07-20 00:00:00 26.2 5 Este 12 Nordeste 0 -- -- 67
2019-07-19 23:00:00 26.5 6 Sudeste 16 Este 0 -- -- 67
2019-07-19 22:00:00 27.2 6 Sudeste 13 Este 0 -- -- 64
2019-07-19 21:00:00 27.3 7 Sur 20 Sur 0 -- -- 69
2019-07-19 20:00:00 27.6 5 Sudoeste 20 Sur 0 -- -- 67
2019-07-19 19:00:00 27.9 7 Sudoeste 18 Sudoeste 0 -- -- 64
2019-07-19 18:00:00 27.9 6 Sudoeste 21 Sur 0 -- -- 66
2019-07-19 17:00:00 28 11 Sur 21 Sudoeste 0 -- -- 67
2019-07-19 16:00:00 27.9 11 Sur 24 Sur 0 -- -- 70
2019-07-19 15:00:00 28.2 13 Sur 24 Sudoeste 0 -- -- 68
2019-07-19 14:00:00 28.6 11 Sur 22 Sudoeste 0 -- -- 66
2019-07-19 13:00:00 28.3 10 Sur 19 Sudoeste 0 -- -- 65
2019-07-19 12:00:00 28 7 Sudoeste 18 Sur 0 -- -- 65
2019-07-19 11:00:00 29 4 Sur 8 Nordeste 0 -- -- 54
2019-07-19 10:00:00 28.7 3 Este 8 Sudeste 0 -- -- 54
2019-07-19 09:00:00 26.8 3 Nordeste 7 Este 0 -- -- 54
2019-07-19 08:00:00 24.3 3 Nordeste 7 Norte 0 -- -- 62
2019-07-19 07:00:00 23.1 3 Norte 5 Nordeste 0 -- -- 66
2019-07-19 06:00:00 23.2 3 Nordeste 6 Nordeste 0 -- -- 64
2019-07-19 05:00:00 23.4 3 Nordeste 6 Nordeste 0 -- -- 65
2019-07-19 04:00:00 23.8 3 Nordeste 5 Norte 0 -- -- 63
2019-07-19 03:00:00 24 2 Nordeste 5 Norte 0 -- -- 62
2019-07-19 02:00:00 24.4 3 Norte 9 Noroeste 0 -- -- 60
2019-07-19 01:00:00 25.3 5 Noroeste 8 Noroeste 0 -- -- 57
2019-07-19 00:00:00 25.3 2 Norte 8 Noroeste 0 -- -- 61
2019-07-18 23:00:00 25.4 0 Calma 5 Sur 0 -- -- 67
2019-07-18 22:00:00 25.9 3 Sur 11 Sur 0 -- -- 67
2019-07-18 21:00:00 26 6 Sudoeste 14 Oeste 0 -- -- 67
2019-07-18 20:00:00 26.5 7 Sur 18 Sur 0 -- -- 66
2019-07-18 19:00:00 26.9 11 Sur 22 Sur 0 -- -- 63
2019-07-18 18:00:00 27.4 12 Sur 22 Sur 0 -- -- 58
2019-07-18 17:00:00 27.8 13 Sur 25 Sur 0 -- -- 57
2019-07-18 16:00:00 27.9 14 Sur 26 Sur 0 -- -- 60
2019-07-18 15:00:00 29 13 Sur 26 Sudoeste 0 -- -- 54
2019-07-18 14:00:00 28.6 13 Sur 32 Sudoeste 0 -- -- 57
2019-07-18 13:00:00 29 12 Sur 21 Sudoeste 0 -- -- 54
2019-07-18 12:00:00 29.8 6 Sudoeste 12 Sur 0 -- -- 49
2019-07-18 11:00:00 28 7 Sur 10 Sur 0 -- -- 58
2019-07-18 10:00:00 29.2 4 Este 8 Sur 0 -- -- 49
2019-07-18 09:00:00 26.6 4 Nordeste 7 Este 0 -- -- 58
2019-07-18 08:00:00 24.5 3 Nordeste 5 Este 0 -- -- 66
2019-07-18 07:00:00 23.4 0 Calma 4 Norte 0 -- -- 64
2019-07-18 06:00:00 23.1 0 Calma 5 Nordeste 0 -- -- 65
2019-07-18 05:00:00 23.7 0 Calma 3 Sudoeste 0 -- -- 63
2019-07-18 04:00:00 23.8 0 Calma 5 Noroeste 0 -- -- 62
2019-07-18 03:00:00 24.3 2 Norte 9 Noroeste 0 -- -- 61
2019-07-18 02:00:00 24.9 5 Noroeste 10 Noroeste 0 -- -- 59
2019-07-18 01:00:00 25.2 5 Norte 10 Norte 0 -- -- 57
2019-07-18 00:00:00 25.7 4 Oeste 10 Oeste 0 -- -- 61